Time;durP1;ratioP1;P1;durP2;ratioP2;P2;SDS_P1;SDS_P2;PMS_P1;PMS_P2;Temp;Humidity;BMP_temperature;BMP_pressure;BME280_temperature;BME280_humidity;BME280_pressure;Samples;Min_cycle;Max_cycle;Signal;HPM_P1;HPM_P2
2022/12/13 00:01:36;;;;;;;2.50;2.35;;;-7.80;99.90;;;;;;5025662;28;20101;-73
2022/12/13 00:04:04;;;;;;;0.88;0.88;;;-7.70;99.90;;;;;;5014412;28;20028;-74
2022/12/13 00:06:31;;;;;;;2.72;2.25;;;-7.90;99.90;;;;;;5001028;28;20072;-73
2022/12/13 00:08:58;;;;;;;0.60;0.60;;;-7.80;99.90;;;;;;4976516;28;20373;-74
2022/12/13 00:11:24;;;;;;;0.63;0.63;;;-8.20;99.90;;;;;;5006837;28;20033;-73
2022/12/13 00:13:49;;;;;;;0.90;0.90;;;-8.00;99.90;;;;;;5000262;28;20083;-74
2022/12/13 00:16:18;;;;;;;0.85;0.85;;;-8.10;99.90;;;;;;4983515;28;20030;-74
2022/12/13 00:18:46;;;;;;;2.00;1.90;;;-8.10;99.90;;;;;;5008484;28;20101;-73
2022/12/13 00:21:14;;;;;;;0.80;0.80;;;-8.10;99.90;;;;;;4995672;28;20037;-74
2022/12/13 00:23:40;;;;;;;0.60;0.60;;;-7.90;99.90;;;;;;5002307;28;20032;-73
2022/12/13 00:26:09;;;;;;;1.17;1.17;;;-8.20;99.90;;;;;;5002166;28;20022;-73
2022/12/13 00:28:35;;;;;;;0.70;0.70;;;-8.10;99.90;;;;;;4988300;28;20037;-75
2022/12/13 00:31:01;;;;;;;6.90;3.13;;;-8.10;99.90;;;;;;5007732;28;20030;-76
2022/12/13 00:33:28;;;;;;;1.10;1.10;;;-7.90;99.90;;;;;;5026536;28;20026;-75
2022/12/13 00:35:53;;;;;;;1.50;1.50;;;-8.00;99.90;;;;;;5026365;28;20422;-75
2022/12/13 00:38:20;;;;;;;0.57;0.57;;;-8.10;99.90;;;;;;4988271;28;20027;-75
2022/12/13 00:40:45;;;;;;;3.42;2.90;;;-8.20;99.90;;;;;;5007216;28;20088;-75
2022/12/13 00:43:11;;;;;;;0.88;0.88;;;-8.30;99.90;;;;;;4988665;28;20018;-75
2022/12/13 00:45:37;;;;;;;0.80;0.80;;;-8.20;99.90;;;;;;5006650;28;20048;-75
2022/12/13 00:48:04;;;;;;;0.60;0.60;;;-8.30;99.90;;;;;;5000096;28;20026;-74
2022/12/13 00:50:30;;;;;;;0.60;0.60;;;-8.30;99.90;;;;;;4999532;28;20034;-74
2022/12/13 00:52:58;;;;;;;12.55;4.68;;;-8.20;99.90;;;;;;5005684;28;20113;-74
2022/12/13 00:55:23;;;;;;;3.10;2.97;;;-8.20;99.90;;;;;;5019381;28;20033;-74
2022/12/13 00:57:49;;;;;;;5.32;4.57;;;-8.30;99.90;;;;;;4986925;28;20025;-74
2022/12/13 01:00:15;;;;;;;1.08;1.08;;;-8.40;99.90;;;;;;5009374;28;20647;-74
2022/12/13 01:02:42;;;;;;;0.75;0.75;;;-8.30;99.90;;;;;;5024416;28;20030;-74
2022/12/13 01:05:08;;;;;;;5.60;1.88;;;-8.40;99.90;;;;;;4982152;28;20031;-74
2022/12/13 01:07:33;;;;;;;0.63;0.63;;;-8.50;99.90;;;;;;4986334;28;20466;-74
2022/12/13 01:09:59;;;;;;;0.95;0.95;;;-8.40;99.90;;;;;;5008074;28;20037;-74
2022/12/13 01:12:24;;;;;;;0.85;0.85;;;-8.50;99.90;;;;;;5002484;28;20509;-74
2022/12/13 01:14:50;;;;;;;2.80;2.63;;;-8.40;99.90;;;;;;4997405;28;20038;-74
2022/12/13 01:17:15;;;;;;;0.60;0.60;;;-8.40;99.90;;;;;;4983617;28;20026;-74
2022/12/13 01:19:41;;;;;;;0.82;0.82;;;-8.40;99.90;;;;;;4981975;28;20061;-74
2022/12/13 01:22:07;;;;;;;0.60;0.60;;;-8.40;99.90;;;;;;4986161;28;20031;-74
2022/12/13 01:24:33;;;;;;;0.70;0.70;;;-8.30;99.90;;;;;;5005824;28;20026;-74
2022/12/13 01:26:59;;;;;;;0.60;0.60;;;-8.20;99.90;;;;;;4983809;28;20018;-74
2022/12/13 01:29:26;;;;;;;0.75;0.75;;;-8.20;99.90;;;;;;4981509;28;20026;-73
2022/12/13 01:31:52;;;;;;;0.68;0.68;;;-8.40;99.90;;;;;;5012082;28;20030;-74
2022/12/13 01:34:20;;;;;;;0.73;0.73;;;-8.40;99.90;;;;;;4994489;28;20068;-73
2022/12/13 01:36:47;;;;;;;1.35;1.35;;;-8.40;99.90;;;;;;4994418;28;20029;-73
2022/12/13 01:39:16;;;;;;;0.60;0.60;;;-8.40;99.90;;;;;;5012143;28;20539;-73
2022/12/13 01:41:44;;;;;;;0.60;0.60;;;-8.50;99.90;;;;;;5011899;28;20052;-73
2022/12/13 01:44:47;;;;;;;0.60;0.60;;;-8.50;99.90;;;;;;5008812;28;20054;-73
2022/12/13 01:47:17;;;;;;;0.60;0.60;;;-8.30;99.90;;;;;;4989291;28;20022;-73
2022/12/13 01:49:42;;;;;;;0.90;0.90;;;-8.20;99.90;;;;;;5003149;28;20023;-73
2022/12/13 01:52:12;;;;;;;0.77;0.77;;;-8.20;99.90;;;;;;5005407;28;20037;-73
2022/12/13 01:54:43;;;;;;;5.28;1.58;;;-8.00;99.90;;;;;;5001514;28;20026;-73
2022/12/13 01:57:11;;;;;;;0.70;0.70;;;-8.00;99.90;;;;;;4991610;28;20026;-74
2022/12/13 01:59:40;;;;;;;0.68;0.68;;;-8.00;99.90;;;;;;5011199;28;20030;-73
2022/12/13 02:02:08;;;;;;;0.70;0.70;;;-8.10;99.90;;;;;;5012141;28;20023;-73
2022/12/13 02:04:52;;;;;;;0.55;0.55;;;-8.10;99.90;;;;;;4992380;28;20026;-73
2022/12/13 02:07:20;;;;;;;1.10;1.10;;;-8.00;99.90;;;;;;5024127;28;20097;-73
2022/12/13 02:09:46;;;;;;;0.60;0.60;;;-8.00;99.90;;;;;;4999388;28;20018;-72
2022/12/13 02:12:12;;;;;;;1.40;1.40;;;-8.00;99.90;;;;;;5017370;28;20025;-73
2022/12/13 02:14:39;;;;;;;1.00;1.00;;;-8.10;99.90;;;;;;5031441;28;20383;-73
2022/12/13 02:17:26;;;;;;;0.70;0.70;;;-8.30;99.90;;;;;;5005971;28;20542;-73
2022/12/13 02:20:09;;;;;;;0.70;0.70;;;-8.20;99.90;;;;;;4994632;28;20038;-73
2022/12/13 02:23:03;;;;;;;0.75;0.75;;;-8.30;99.90;;;;;;4982762;28;20035;-73
2022/12/13 02:25:48;;;;;;;1.65;1.65;;;-8.30;99.90;;;;;;4979058;28;20042;-73
2022/12/13 02:28:25;;;;;;;0.70;0.70;;;-8.30;99.90;;;;;;5008799;28;20035;-73
2022/12/13 02:30:57;;;;;;;0.60;0.60;;;-8.10;99.90;;;;;;4990695;28;20030;-73
2022/12/13 02:33:44;;;;;;;0.60;0.60;;;-8.10;99.90;;;;;;4985222;28;20041;-74
2022/12/13 02:36:25;;;;;;;1.23;1.23;;;-8.10;99.90;;;;;;4984911;28;20756;-74
2022/12/13 02:39:06;;;;;;;1.45;1.40;;;-8.10;99.90;;;;;;5004011;28;20192;-74
2022/12/13 02:41:40;;;;;;;1.02;1.02;;;-8.20;99.90;;;;;;5022001;28;20037;-72
2022/12/13 02:44:16;;;;;;;0.70;0.70;;;-8.20;99.90;;;;;;5019320;28;20064;-74
2022/12/13 02:46:49;;;;;;;0.88;0.88;;;-8.10;99.90;;;;;;5004698;28;20365;-74
2022/12/13 02:49:16;;;;;;;0.70;0.70;;;-8.10;99.90;;;;;;4984736;28;20053;-73
2022/12/13 02:51:43;;;;;;;2.72;2.55;;;-8.20;99.90;;;;;;4987382;28;20065;-75
2022/12/13 02:54:09;;;;;;;0.85;0.85;;;-8.30;99.90;;;;;;5012595;28;20445;-75
2022/12/13 02:56:34;;;;;;;0.70;0.70;;;-8.40;99.90;;;;;;5015070;28;20029;-75
2022/12/13 02:59:06;;;;;;;0.80;0.80;;;-8.30;99.90;;;;;;4984343;28;20040;-75
2022/12/13 03:01:56;;;;;;;0.57;0.57;;;-8.30;99.90;;;;;;5014998;28;20030;-74
2022/12/13 03:04:21;;;;;;;0.70;0.70;;;-8.20;99.90;;;;;;4988958;28;20041;-75
2022/12/13 03:07:09;;;;;;;0.70;0.70;;;-8.30;99.90;;;;;;5008433;28;20033;-75
2022/12/13 03:09:35;;;;;;;7.60;7.18;;;-8.30;99.90;;;;;;5006993;28;20018;-74
2022/12/13 03:15:29;;;;;;;0.65;0.65;;;-8.30;99.90;;;;;;5013303;28;20055;-73
2022/12/13 03:17:58;;;;;;;1.13;1.13;;;-8.30;99.90;;;;;;5001468;28;20044;-74
2022/12/13 03:20:26;;;;;;;1.08;1.08;;;-8.30;99.90;;;;;;5007463;28;20015;-74
2022/12/13 03:22:53;;;;;;;0.70;0.70;;;-8.30;99.90;;;;;;5008043;28;20392;-74
2022/12/13 03:25:20;;;;;;;0.60;0.60;;;-8.40;99.90;;;;;;4985245;28;20049;-73
2022/12/13 03:27:45;;;;;;;0.60;0.60;;;-8.40;99.90;;;;;;4999761;28;20022;-74
2022/12/13 03:30:11;;;;;;;1.23;1.17;;;-8.40;99.90;;;;;;4985502;28;20492;-74
2022/12/13 03:32:37;;;;;;;0.80;0.80;;;-8.60;99.90;;;;;;5001124;28;20037;-73
2022/12/13 03:35:03;;;;;;;7.60;3.50;;;-8.60;99.90;;;;;;5013498;28;20105;-73
2022/12/13 03:37:28;;;;;;;1.50;1.40;;;-8.60;99.90;;;;;;5028639;28;20480;-73
2022/12/13 03:39:54;;;;;;;4.47;1.77;;;-8.80;99.90;;;;;;5025951;28;20026;-73
2022/12/13 03:42:20;;;;;;;0.88;0.88;;;-8.80;99.90;;;;;;5000906;28;20022;-73
2022/12/13 03:44:45;;;;;;;0.77;0.77;;;-9.20;99.90;;;;;;5014151;28;20484;-72
2022/12/13 03:47:11;;;;;;;7.53;6.82;;;-9.30;99.90;;;;;;5000928;28;20358;-72
2022/12/13 03:49:36;;;;;;;0.70;0.70;;;-9.20;99.90;;;;;;4989152;28;20018;-72
2022/12/13 03:52:02;;;;;;;0.85;0.85;;;-9.20;99.90;;;;;;5008269;28;20022;-72
2022/12/13 03:54:27;;;;;;;0.70;0.70;;;-9.20;99.90;;;;;;5014185;28;20018;-72
2022/12/13 03:56:53;;;;;;;3.38;3.28;;;-9.10;99.90;;;;;;4983359;28;20066;-73
2022/12/13 03:59:19;;;;;;;3.00;2.85;;;-9.00;99.90;;;;;;5026769;28;20109;-73
2022/12/13 04:01:44;;;;;;;0.90;0.90;;;-9.00;99.90;;;;;;5000649;28;20026;-72
2022/12/13 04:04:10;;;;;;;2.10;2.00;;;-9.00;99.90;;;;;;4989608;28;20029;-72
2022/12/13 04:06:35;;;;;;;1.10;1.10;;;-8.80;99.90;;;;;;4989793;28;20102;-73
2022/12/13 04:09:01;;;;;;;0.90;0.90;;;-9.00;99.90;;;;;;5000852;28;20113;-73
2022/12/13 04:14:10;;;;;;;0.90;0.90;;;-9.00;99.90;;;;;;5002885;28;20061;-73
2022/12/13 04:16:36;;;;;;;2.45;2.25;;;-8.80;99.90;;;;;;4982754;28;20027;-73
2022/12/13 04:19:02;;;;;;;0.70;0.70;;;-8.90;99.90;;;;;;5022136;28;20017;-73
2022/12/13 04:21:27;;;;;;;1.90;1.88;;;-8.80;99.90;;;;;;5020132;28;20121;-73
2022/12/13 04:23:53;;;;;;;0.65;0.65;;;-8.80;99.90;;;;;;5024609;28;20097;-72
2022/12/13 04:26:18;;;;;;;0.80;0.80;;;-8.70;99.90;;;;;;5026667;28;20025;-73
2022/12/13 04:28:44;;;;;;;0.80;0.80;;;-8.60;99.90;;;;;;5005000;28;20029;-73
2022/12/13 04:31:10;;;;;;;0.75;0.75;;;-8.60;99.90;;;;;;4989221;28;20029;-73
2022/12/13 04:33:35;;;;;;;1.55;1.45;;;-8.70;99.90;;;;;;4984558;28;20034;-73
2022/12/13 04:36:01;;;;;;;0.80;0.80;;;-8.70;99.90;;;;;;5026253;28;20137;-73
2022/12/13 04:38:27;;;;;;;0.70;0.70;;;-8.60;99.90;;;;;;5004836;28;20030;-74
2022/12/13 04:40:52;;;;;;;1.77;1.70;;;-8.60;99.90;;;;;;5009769;28;20014;-73
2022/12/13 04:43:18;;;;;;;0.93;0.93;;;-8.50;99.90;;;;;;5024846;28;20018;-74
2022/12/13 04:45:43;;;;;;;1.58;1.58;;;-8.60;99.90;;;;;;4982323;28;20026;-74
2022/12/13 04:48:09;;;;;;;1.35;1.35;;;-8.60;99.90;;;;;;5012774;28;20045;-73
2022/12/13 04:50:35;;;;;;;0.60;0.60;;;-8.40;99.90;;;;;;4999822;28;20054;-73
2022/12/13 04:53:01;;;;;;;0.63;0.63;;;-8.70;99.90;;;;;;5004787;28;20019;-73
2022/12/13 04:55:27;;;;;;;1.10;1.10;;;-8.60;99.90;;;;;;4995061;28;20042;-73
2022/12/13 04:57:52;;;;;;;1.10;1.10;;;-8.60;99.90;;;;;;5020770;28;20013;-74
2022/12/13 05:00:20;;;;;;;0.70;0.70;;;-8.50;99.90;;;;;;5016364;28;20029;-73
2022/12/13 05:02:46;;;;;;;1.63;1.63;;;-8.50;99.90;;;;;;5009752;28;20022;-73
2022/12/13 05:05:12;;;;;;;1.15;1.15;;;-8.60;99.90;;;;;;5016145;28;20488;-73
2022/12/13 05:07:38;;;;;;;0.80;0.80;;;-8.60;99.90;;;;;;4975379;28;20030;-73
2022/12/13 05:10:04;;;;;;;0.63;0.63;;;-8.70;99.90;;;;;;5020689;28;20048;-73
2022/12/13 05:12:30;;;;;;;0.70;0.70;;;-8.80;99.90;;;;;;5024575;28;20029;-74
2022/12/13 05:14:55;;;;;;;1.00;1.00;;;-8.80;99.90;;;;;;5027567;28;20120;-74
2022/12/13 05:17:21;;;;;;;0.73;0.73;;;-8.80;99.90;;;;;;4996430;28;20030;-74
2022/12/13 05:19:46;;;;;;;0.60;0.60;;;-8.90;99.90;;;;;;4983950;28;20034;-74
2022/12/13 05:22:14;;;;;;;0.75;0.75;;;-8.90;99.90;;;;;;4992430;28;20048;-73
2022/12/13 05:24:41;;;;;;;0.80;0.80;;;-8.80;99.90;;;;;;5037069;28;20021;-74
2022/12/13 05:27:07;;;;;;;2.70;2.55;;;-8.80;99.90;;;;;;5012813;28;20146;-74
2022/12/13 05:29:33;;;;;;;1.38;1.38;;;-8.70;99.90;;;;;;5027228;28;20044;-73
2022/12/13 05:31:59;;;;;;;2.03;2.00;;;-8.70;99.90;;;;;;5020946;28;20021;-74
2022/12/13 05:34:24;;;;;;;0.70;0.70;;;-8.70;99.90;;;;;;5026261;28;20022;-75
2022/12/13 05:36:50;;;;;;;0.63;0.63;;;-8.80;99.90;;;;;;5000481;28;20022;-74
2022/12/13 05:39:15;;;;;;;2.10;2.00;;;-8.60;99.90;;;;;;4999949;28;20058;-74
2022/12/13 05:41:41;;;;;;;0.70;0.70;;;-8.70;99.90;;;;;;5005901;28;20018;-76
2022/12/13 05:44:09;;;;;;;3.80;3.60;;;-8.80;99.90;;;;;;4988657;28;20018;-76
2022/12/13 05:46:35;;;;;;;0.77;0.77;;;-8.80;99.90;;;;;;4982838;28;20025;-75
2022/12/13 05:49:00;;;;;;;2.08;1.98;;;-8.80;99.90;;;;;;4999403;28;20045;-76
2022/12/13 05:51:26;;;;;;;1.27;1.27;;;-8.90;99.90;;;;;;4987428;28;20101;-75
2022/12/13 05:53:52;;;;;;;0.75;0.75;;;-8.90;99.90;;;;;;5006724;28;20041;-75
2022/12/13 05:56:17;;;;;;;0.77;0.77;;;-9.10;99.90;;;;;;4985746;28;20056;-74
2022/12/13 05:58:43;;;;;;;0.90;0.90;;;-9.20;99.90;;;;;;5004775;28;20030;-74
2022/12/13 06:01:11;;;;;;;1.10;1.10;;;-9.10;99.90;;;;;;5000337;28;20100;-75
2022/12/13 06:03:38;;;;;;;0.70;0.70;;;-8.90;99.90;;;;;;5005633;28;20061;-74
2022/12/13 06:06:05;;;;;;;0.77;0.77;;;-9.30;99.90;;;;;;4994191;28;20034;-74
2022/12/13 06:08:31;;;;;;;0.77;0.77;;;-9.30;99.90;;;;;;4980877;28;20060;-74
2022/12/13 06:10:58;;;;;;;1.23;1.23;;;-9.30;99.90;;;;;;5011909;28;20483;-74
2022/12/13 06:13:24;;;;;;;0.80;0.80;;;-9.20;99.90;;;;;;4981525;28;20511;-74
2022/12/13 06:15:50;;;;;;;1.15;1.15;;;-9.40;99.90;;;;;;5002701;28;20125;-75
2022/12/13 06:18:16;;;;;;;0.98;0.98;;;-9.70;99.90;;;;;;4995072;28;20057;-75
2022/12/13 06:20:42;;;;;;;0.63;0.63;;;-9.60;99.90;;;;;;4984495;28;20057;-74
2022/12/13 06:23:08;;;;;;;1.73;1.65;;;-9.40;99.90;;;;;;5005855;28;20477;-75
2022/12/13 06:25:35;;;;;;;0.73;0.73;;;-9.40;99.90;;;;;;4984186;28;20121;-74
2022/12/13 06:28:02;;;;;;;0.70;0.70;;;-9.40;99.90;;;;;;4998586;28;20113;-74
2022/12/13 06:30:28;;;;;;;1.00;1.00;;;-9.30;99.90;;;;;;5001779;28;20604;-74
2022/12/13 06:32:54;;;;;;;1.02;1.02;;;-9.20;99.90;;;;;;5004973;28;20110;-73
2022/12/13 06:35:19;;;;;;;1.20;1.20;;;-9.20;99.90;;;;;;5001679;28;20112;-75
2022/12/13 06:37:45;;;;;;;0.73;0.73;;;-9.40;99.90;;;;;;4993924;28;20476;-74
2022/12/13 06:40:11;;;;;;;1.27;1.25;;;-9.40;99.90;;;;;;4984297;28;20030;-74
2022/12/13 06:42:36;;;;;;;0.80;0.80;;;-9.60;99.90;;;;;;5009788;28;20460;-74
2022/12/13 06:45:02;;;;;;;0.90;0.90;;;-9.60;99.90;;;;;;5020535;28;20036;-74
2022/12/13 06:47:29;;;;;;;0.70;0.70;;;-9.20;99.90;;;;;;5024703;28;20061;-75
2022/12/13 06:49:54;;;;;;;0.80;0.80;;;-9.50;99.90;;;;;;5010824;28;20026;-74
2022/12/13 06:52:20;;;;;;;0.80;0.80;;;-9.50;99.90;;;;;;4993739;28;20033;-74
2022/12/13 06:54:45;;;;;;;1.00;1.00;;;-9.40;99.90;;;;;;4993674;28;20034;-74
2022/12/13 06:57:11;;;;;;;1.95;1.08;;;-9.40;99.90;;;;;;5011482;28;20410;-74
2022/12/13 06:59:37;;;;;;;0.80;0.80;;;-9.40;99.90;;;;;;5002774;28;20052;-74
2022/12/13 07:02:03;;;;;;;4.18;3.80;;;-9.40;99.90;;;;;;5007610;28;20492;-74
2022/12/13 07:04:28;;;;;;;0.70;0.70;;;-9.40;99.90;;;;;;4993460;28;20033;-74
2022/12/13 07:06:54;;;;;;;2.47;2.40;;;-9.40;99.90;;;;;;5010331;28;20036;-74
2022/12/13 07:09:19;;;;;;;2.67;2.58;;;-9.40;99.90;;;;;;4993379;28;20037;-75
2022/12/13 07:11:45;;;;;;;0.70;0.70;;;-9.40;99.90;;;;;;5013287;28;20111;-74
2022/12/13 07:14:10;;;;;;;0.80;0.80;;;-9.30;99.90;;;;;;4996818;28;20025;-75
2022/12/13 07:16:36;;;;;;;0.63;0.63;;;-9.40;99.90;;;;;;5014385;28;20038;-74
2022/12/13 07:19:03;;;;;;;0.80;0.80;;;-9.60;99.90;;;;;;4996153;28;20064;-74
2022/12/13 07:21:30;;;;;;;0.95;0.95;;;-9.90;99.90;;;;;;5014171;28;20034;-74
2022/12/13 07:23:55;;;;;;;1.38;1.38;;;-10.00;99.90;;;;;;5013085;28;20037;-74
2022/12/13 07:26:22;;;;;;;3.97;3.60;;;-9.90;99.90;;;;;;5013165;28;20041;-74
2022/12/13 07:28:47;;;;;;;10.45;3.80;;;-9.80;99.90;;;;;;5013970;28;20066;-75
2022/12/13 07:31:13;;;;;;;1.13;1.13;;;-9.80;99.90;;;;;;4996722;28;20057;-74
2022/12/13 07:33:39;;;;;;;1.83;1.77;;;-9.70;99.90;;;;;;4996691;28;20057;-74
2022/12/13 07:36:12;;;;;;;1.85;1.80;;;-9.50;99.90;;;;;;5014139;28;20441;-75
2022/12/13 07:38:38;;;;;;;0.70;0.70;;;-9.40;99.90;;;;;;5013963;28;20145;-74
2022/12/13 07:41:04;;;;;;;0.90;0.90;;;-9.30;99.90;;;;;;4996468;28;20026;-74
2022/12/13 07:43:31;;;;;;;0.80;0.80;;;-9.30;99.90;;;;;;5014566;28;20030;-74
2022/12/13 07:46:00;;;;;;;0.70;0.70;;;-9.10;99.90;;;;;;4996480;28;20145;-73
2022/12/13 07:48:27;;;;;;;1.10;1.10;;;-9.10;99.90;;;;;;5013719;28;20505;-73
2022/12/13 07:51:06;;;;;;;0.80;0.80;;;-9.10;99.90;;;;;;5014084;28;20061;-73
2022/12/13 07:53:32;;;;;;;0.70;0.70;;;-8.60;99.90;;;;;;4996316;28;20057;-73
2022/12/13 07:56:03;;;;;;;1.33;1.33;;;-8.70;99.90;;;;;;5013638;28;20026;-73
2022/12/13 07:58:29;;;;;;;0.65;0.65;;;-8.80;99.90;;;;;;5013492;28;20365;-73
2022/12/13 08:01:00;;;;;;;0.70;0.70;;;-8.70;99.90;;;;;;4995831;28;20423;-73
2022/12/13 08:03:26;;;;;;;0.65;0.65;;;-8.70;99.90;;;;;;5008184;28;20027;-73
2022/12/13 08:06:06;;;;;;;0.70;0.70;;;-8.70;99.90;;;;;;5013703;28;20058;-73
2022/12/13 08:08:32;;;;;;;0.70;0.70;;;-8.60;99.90;;;;;;5023633;28;20042;-73
2022/12/13 08:11:02;;;;;;;0.60;0.60;;;-8.60;99.90;;;;;;5003373;28;20022;-73
2022/12/13 08:13:28;;;;;;;0.80;0.80;;;-8.60;99.90;;;;;;5013498;28;20033;-73
2022/12/13 08:16:01;;;;;;;1.30;1.30;;;-8.40;99.90;;;;;;5013534;28;20029;-73
2022/12/13 08:18:30;;;;;;;1.23;1.23;;;-8.30;99.90;;;;;;4995555;28;20021;-73
2022/12/13 08:21:00;;;;;;;2.33;2.22;;;-8.10;99.90;;;;;;4995323;28;20449;-71
2022/12/13 08:23:28;;;;;;;0.70;0.70;;;-8.00;99.90;;;;;;5013151;28;20026;-73
2022/12/13 08:25:54;;;;;;;2.75;2.55;;;-8.10;99.90;;;;;;5012539;28;20109;-73
2022/12/13 08:28:20;;;;;;;2.30;2.20;;;-8.10;99.90;;;;;;5012585;28;20048;-73
2022/12/13 08:30:47;;;;;;;1.30;1.30;;;-8.10;99.90;;;;;;5013020;28;20052;-73
2022/12/13 08:33:12;;;;;;;0.70;0.70;;;-8.10;99.90;;;;;;4995522;28;20026;-73
2022/12/13 08:35:38;;;;;;;0.88;0.88;;;-8.00;99.90;;;;;;5012682;28;20037;-73
2022/12/13 08:38:03;;;;;;;2.55;2.45;;;-7.90;99.90;;;;;;4994663;28;20022;-73
2022/12/13 08:40:29;;;;;;;1.23;1.23;;;-7.80;99.90;;;;;;5012789;28;20026;-73
2022/12/13 08:42:55;;;;;;;0.80;0.80;;;-7.80;99.90;;;;;;5012730;28;20026;-73
2022/12/13 08:45:22;;;;;;;0.70;0.70;;;-7.80;99.90;;;;;;5012853;28;20109;-74
2022/12/13 08:47:48;;;;;;;0.60;0.60;;;-7.80;99.90;;;;;;5012040;28;20057;-73
2022/12/13 08:50:14;;;;;;;1.65;1.63;;;-7.70;99.90;;;;;;4994971;28;20068;-73
2022/12/13 08:52:41;;;;;;;0.70;0.70;;;-7.70;99.90;;;;;;4994882;28;20025;-74
2022/12/13 08:55:09;;;;;;;1.65;1.55;;;-7.60;99.90;;;;;;4994890;28;20032;-73
2022/12/13 08:57:35;;;;;;;0.80;0.80;;;-7.60;99.90;;;;;;5011776;28;20468;-73
2022/12/13 09:00:04;;;;;;;0.70;0.70;;;-7.40;99.90;;;;;;5012594;28;20021;-73
2022/12/13 09:02:29;;;;;;;1.52;1.52;;;-7.40;99.90;;;;;;5005084;28;20025;-73
2022/12/13 09:04:55;;;;;;;2.90;1.55;;;-7.40;99.90;;;;;;5012481;28;20412;-73
2022/12/13 09:07:20;;;;;;;1.63;1.58;;;-7.40;99.90;;;;;;5011957;28;20092;-73
2022/12/13 09:09:46;;;;;;;1.45;1.45;;;-7.30;99.90;;;;;;5012454;28;20025;-73
2022/12/13 09:12:11;;;;;;;0.80;0.80;;;-7.30;99.90;;;;;;5012105;28;20056;-73
2022/12/13 09:14:37;;;;;;;14.25;3.63;;;-7.10;99.90;;;;;;4994547;28;20550;-73
2022/12/13 09:17:03;;;;;;;4.47;1.95;;;-7.20;99.90;;;;;;5004061;28;20514;-73
2022/12/13 09:19:28;;;;;;;1.42;1.42;;;-7.10;99.90;;;;;;5002312;28;20117;-73
2022/12/13 09:21:54;;;;;;;5.15;4.80;;;-7.00;99.90;;;;;;4998829;28;20037;-73
2022/12/13 09:24:19;;;;;;;1.58;1.50;;;-7.00;99.90;;;;;;5000393;28;20026;-73
2022/12/13 09:26:45;;;;;;;0.85;0.85;;;-7.00;99.90;;;;;;4988307;28;20046;-73
2022/12/13 09:29:11;;;;;;;0.68;0.68;;;-6.90;99.90;;;;;;5004133;28;20045;-73
2022/12/13 09:31:37;;;;;;;0.80;0.80;;;-6.80;99.90;;;;;;5017329;28;20040;-74
2022/12/13 09:34:02;;;;;;;0.60;0.60;;;-6.80;99.90;;;;;;5019427;28;20049;-73
2022/12/13 09:36:28;;;;;;;5.53;4.97;;;-6.70;99.90;;;;;;4998877;28;20026;-74
2022/12/13 09:38:54;;;;;;;4.20;2.53;;;-6.60;99.90;;;;;;5000413;28;20022;-73
2022/12/13 09:41:22;;;;;;;3.13;3.03;;;-6.50;99.90;;;;;;5005702;28;20068;-75
2022/12/13 09:43:54;;;;;;;1.42;1.42;;;-6.40;99.90;;;;;;5001888;28;20735;-74
2022/12/13 09:46:37;;;;;;;1.40;1.30;;;-6.40;99.90;;;;;;4993999;28;20022;-73
2022/12/13 09:49:10;;;;;;;3.70;2.20;;;-6.30;99.90;;;;;;5006007;28;20014;-73
2022/12/13 09:51:36;;;;;;;4.18;3.80;;;-6.20;99.90;;;;;;4994075;28;20057;-73
2022/12/13 09:54:03;;;;;;;2.70;2.53;;;-6.30;99.90;;;;;;5011460;28;20030;-74
2022/12/13 09:56:28;;;;;;;3.33;1.48;;;-6.20;99.90;;;;;;5011823;28;20116;-73
2022/12/13 09:58:55;;;;;;;0.60;0.60;;;-6.10;99.90;;;;;;5001500;28;20096;-73
2022/12/13 10:01:22;;;;;;;0.50;0.50;;;-5.90;99.90;;;;;;5021170;28;20022;-74
2022/12/13 10:03:50;;;;;;;0.65;0.65;;;-6.00;99.90;;;;;;5008178;28;20037;-73
2022/12/13 10:06:19;;;;;;;0.80;0.80;;;-6.00;99.90;;;;;;5002559;28;20022;-73
2022/12/13 10:08:49;;;;;;;1.00;1.00;;;-5.90;99.90;;;;;;5023989;28;20030;-73
2022/12/13 10:11:16;;;;;;;0.77;0.77;;;-5.80;99.90;;;;;;5005497;28;20439;-73
2022/12/13 10:13:47;;;;;;;0.93;0.93;;;-5.80;99.90;;;;;;5018060;28;20041;-73
2022/12/13 10:16:33;;;;;;;0.90;0.90;;;-5.80;99.90;;;;;;5018881;28;20029;-73
2022/12/13 10:19:01;;;;;;;1.17;1.17;;;-5.70;99.90;;;;;;5000473;28;20052;-74
2022/12/13 10:21:39;;;;;;;0.90;0.90;;;-5.60;99.90;;;;;;5011757;28;20065;-72
2022/12/13 10:24:32;;;;;;;0.82;0.82;;;-5.60;99.90;;;;;;5011517;28;20426;-73
2022/12/13 10:27:10;;;;;;;0.80;0.80;;;-5.50;99.90;;;;;;4998590;28;20022;-74
2022/12/13 10:30:00;;;;;;;0.90;0.90;;;-5.50;99.90;;;;;;5011299;28;20030;-74
2022/12/13 10:32:26;;;;;;;0.80;0.80;;;-5.40;99.90;;;;;;4999181;28;20084;-74
2022/12/13 10:34:55;;;;;;;8.38;2.55;;;-5.40;99.90;;;;;;5010422;28;20034;-73
2022/12/13 10:37:31;;;;;;;5.80;3.78;;;-5.20;99.90;;;;;;4993117;28;20026;-73
2022/12/13 10:39:57;;;;;;;1.75;1.65;;;-5.10;99.90;;;;;;5011356;28;20435;-74
2022/12/13 10:42:24;;;;;;;1.10;1.10;;;-5.00;99.90;;;;;;4993507;28;20026;-73
2022/12/13 10:45:09;;;;;;;2.35;2.22;;;-4.90;99.90;;;;;;4994590;28;20026;-74
2022/12/13 10:47:35;;;;;;;3.67;1.52;;;-4.80;99.90;;;;;;5014244;28;20076;-74
2022/12/13 10:50:03;;;;;;;0.80;0.80;;;-4.70;99.90;;;;;;4997345;28;20496;-74
2022/12/13 10:52:33;;;;;;;1.45;1.45;;;-4.60;99.90;;;;;;5014778;28;20049;-74
2022/12/13 10:55:04;;;;;;;0.90;0.90;;;-4.60;99.90;;;;;;5014718;28;20022;-73
2022/12/13 10:57:31;;;;;;;1.88;1.77;;;-4.50;99.90;;;;;;5019358;28;20057;-73
2022/12/13 10:59:57;;;;;;;0.80;0.80;;;-4.40;99.90;;;;;;5004727;28;20022;-73
2022/12/13 11:02:36;;;;;;;1.10;1.10;;;-4.30;99.90;;;;;;5015513;28;20026;-73
2022/12/13 11:05:23;;;;;;;3.88;3.72;;;-4.20;99.90;;;;;;5008518;28;20026;-73
2022/12/13 11:07:49;;;;;;;0.70;0.70;;;-4.00;99.90;;;;;;5004825;28;20018;-74
2022/12/13 11:10:27;;;;;;;1.33;1.33;;;-3.80;99.90;;;;;;5001684;28;20018;-74
2022/12/13 11:13:02;;;;;;;0.80;0.80;;;-3.70;99.90;;;;;;5002622;28;20033;-74
2022/12/13 11:15:29;;;;;;;0.70;0.70;;;-3.70;99.90;;;;;;5007853;28;20018;-73
2022/12/13 11:17:58;;;;;;;0.75;0.75;;;-3.80;99.90;;;;;;5008262;28;20026;-73
2022/12/13 11:20:29;;;;;;;0.77;0.77;;;-3.80;99.90;;;;;;5019407;28;20041;-74
2022/12/13 11:23:24;;;;;;;1.77;1.67;;;-3.80;99.90;;;;;;4997535;28;20034;-74
2022/12/13 11:25:55;;;;;;;0.90;0.90;;;-3.80;99.90;;;;;;5022402;28;20026;-74
2022/12/13 11:29:11;;;;;;;1.38;1.38;;;-3.70;99.90;;;;;;5000914;28;20025;-74
2022/12/13 11:32:12;;;;;;;0.80;0.80;;;-3.80;99.90;;;;;;4953446;28;20106;-74
2022/12/13 11:35:12;;;;;;;1.00;1.00;;;-3.70;99.90;;;;;;4959835;28;20068;-74
2022/12/13 11:38:01;;;;;;;1.25;1.25;;;-3.60;99.90;;;;;;5013594;28;20022;-74
2022/12/13 11:40:30;;;;;;;0.80;0.80;;;-3.50;99.90;;;;;;5014040;28;20033;-74
2022/12/13 11:43:18;;;;;;;0.80;0.80;;;-3.50;99.90;;;;;;4996354;28;20026;-74
2022/12/13 11:45:49;;;;;;;0.80;0.80;;;-3.40;99.90;;;;;;5013881;28;20531;-74
2022/12/13 11:48:24;;;;;;;0.90;0.90;;;-3.10;99.90;;;;;;5012972;28;20030;-74
2022/12/13 11:50:52;;;;;;;1.20;1.20;;;-3.10;99.90;;;;;;5014126;28;20480;-74
2022/12/13 11:53:17;;;;;;;1.20;1.20;;;-3.20;99.90;;;;;;5013844;28;20480;-74
2022/12/13 11:56:03;;;;;;;1.10;1.10;;;-3.10;99.90;;;;;;5013118;28;20038;-73
2022/12/13 11:58:38;;;;;;;0.90;0.90;;;-3.10;99.90;;;;;;4992235;28;20104;-74
2022/12/13 12:01:13;;;;;;;0.70;0.70;;;-3.10;99.90;;;;;;5001297;28;20026;-77
2022/12/13 12:03:45;;;;;;;0.85;0.85;;;-3.10;99.90;;;;;;5013539;28;20021;-75
2022/12/13 12:06:20;;;;;;;1.73;1.63;;;-3.10;99.90;;;;;;5013477;28;20069;-74
2022/12/13 12:09:00;;;;;;;1.02;1.00;;;-3.00;99.90;;;;;;5013015;28;20026;-74
2022/12/13 12:11:34;;;;;;;3.15;2.80;;;-2.90;99.90;;;;;;5013608;28;20038;-74
2022/12/13 12:14:10;;;;;;;3.13;2.90;;;-2.90;99.90;;;;;;4994163;28;20065;-74
2022/12/13 12:16:42;;;;;;;5.15;2.53;;;-3.00;99.90;;;;;;5006927;28;20029;-74
2022/12/13 12:19:17;;;;;;;1.85;1.77;;;-3.20;99.90;;;;;;4985469;28;20480;-74
2022/12/13 12:21:59;;;;;;;3.35;2.55;;;-3.20;99.90;;;;;;5026283;28;20037;-74
2022/12/13 12:24:36;;;;;;;6.32;3.47;;;-3.20;99.90;;;;;;5026355;28;20021;-74
2022/12/13 12:27:20;;;;;;;2.40;2.30;;;-3.30;99.90;;;;;;5000934;28;20488;-74
2022/12/13 12:30:08;;;;;;;2.63;2.53;;;-3.20;99.90;;;;;;4996692;28;20038;-75
2022/12/13 12:32:51;;;;;;;1.10;1.10;;;-3.20;99.90;;;;;;5006578;28;20384;-77
2022/12/13 12:35:50;;;;;;;2.40;2.30;;;-3.20;99.90;;;;;;4995715;28;20087;-75
2022/12/13 12:38:38;;;;;;;0.95;0.95;;;-3.10;99.90;;;;;;4988502;28;20101;-76
2022/12/13 12:41:24;;;;;;;8.65;1.85;;;-3.10;99.90;;;;;;4989157;28;20416;-75
2022/12/13 12:44:14;;;;;;;4.20;2.88;;;-3.00;99.90;;;;;;4988284;28;20057;-76
2022/12/13 12:46:55;;;;;;;0.95;0.95;;;-2.90;99.90;;;;;;4996037;28;20414;-75
2022/12/13 12:50:02;;;;;;;2.15;1.95;;;-2.90;99.90;;;;;;5013826;28;20160;-76
2022/12/13 12:52:37;;;;;;;;;;;-2.90;99.90;;;;;;5010702;28;20045;-76
2022/12/13 12:55:08;;;;;;;3.42;3.13;;;-2.90;99.90;;;;;;5012693;28;19956;-75
2022/12/13 12:58:04;;;;;;;1.95;1.85;;;-2.90;99.90;;;;;;5012015;28;20022;-75
2022/12/13 13:00:47;;;;;;;1.35;1.25;;;-2.90;99.90;;;;;;4994769;28;20025;-75
2022/12/13 13:03:25;;;;;;;3.08;2.38;;;-2.90;99.90;;;;;;5012545;28;20026;-75
2022/12/13 13:06:07;;;;;;;1.80;1.70;;;-2.80;99.90;;;;;;4994968;28;20022;-75
2022/12/13 13:09:04;;;;;;;3.15;2.13;;;-2.80;99.90;;;;;;5011517;28;20120;-75